Time;durP1;ratioP1;P1;durP2;ratioP2;P2;SDS_P1;SDS_P2;PMS_P1;PMS_P2;Temp;Humidity;BMP_temperature;BMP_pressure;BME280_temperature;BME280_humidity;BME280_pressure;Samples;Min_cycle;Max_cycle;Signal;HPM_P1;HPM_P2
2021/11/07 00:00:55;;;;;;;;;76.75;62.50;13.10;66.70;;;;;;5009707;28;8806;-54
2021/11/07 00:04:28;;;;;;;;;78.75;65.75;13.10;66.70;;;;;;5010626;28;8913;-54
2021/11/07 00:06:24;;;;;;;;;68.50;55.75;13.00;66.80;;;;;;5006348;28;8992;-54
2021/11/07 00:12:26;;;;;;;;;61.25;51.75;13.10;66.70;;;;;;5014427;28;8765;-56
2021/11/07 00:14:17;;;;;;;;;65.25;54.25;13.20;66.10;;;;;;5005334;28;8812;-54
2021/11/07 00:16:43;;;;;;;;;64.25;53.00;13.20;66.00;;;;;;5015020;28;8786;-54
2021/11/07 00:29:36;;;;;;;;;62.00;51.00;13.30;65.80;;;;;;5014633;28;9404;-55
2021/11/07 00:37:29;;;;;;;;;58.75;50.75;13.10;67.00;;;;;;5014499;28;8742;-54
2021/11/07 00:40:10;;;;;;;;;69.50;56.75;12.90;67.10;;;;;;5014750;28;9428;-53
2021/11/07 00:45:32;;;;;;;;;59.00;49.25;12.70;67.70;;;;;;5014451;28;8773;-54
2021/11/07 00:48:03;;;;;;;;;65.50;54.00;12.90;67.30;;;;;;5014231;28;8806;-55
2021/11/07 00:50:41;;;;;;;;;60.75;50.25;12.80;66.80;;;;;;5015432;28;9388;-54
2021/11/07 00:55:48;;;;;;;;;70.00;58.25;12.30;69.80;;;;;;5017709;28;8770;-51
2021/11/07 00:58:21;;;;;;;;;60.00;51.00;12.70;68.30;;;;;;5010551;28;8846;-56
2021/11/07 01:01:07;;;;;;;;;61.00;51.50;13.00;67.60;;;;;;5018423;28;8806;-53
2021/11/07 01:03:33;;;;;;;;;55.50;47.25;13.10;66.60;;;;;;5017554;28;8809;-55
2021/11/07 01:05:58;;;;;;;;;59.25;49.75;12.70;67.70;;;;;;5018043;28;9475;-54
2021/11/07 01:08:25;;;;;;;;;57.75;49.00;12.60;67.90;;;;;;5018125;28;8786;-54
2021/11/07 01:10:51;;;;;;;;;54.50;46.25;12.50;68.50;;;;;;5018207;28;8839;-55
2021/11/07 01:13:17;;;;;;;;;64.00;52.75;12.40;68.70;;;;;;5017972;28;8774;-55
2021/11/07 01:15:43;;;;;;;;;58.50;49.75;12.00;70.70;;;;;;5018186;28;9444;-55
2021/11/07 01:18:09;;;;;;;;;52.00;45.00;12.20;69.80;;;;;;5016889;28;8891;-55
2021/11/07 01:20:35;;;;;;;;;50.75;43.75;12.40;68.70;;;;;;5017868;28;8782;-55
2021/11/07 01:25:37;;;;;;;;;56.50;48.25;12.10;70.10;;;;;;5017933;28;8892;-52
2021/11/07 01:28:05;;;;;;;;;54.25;46.25;12.10;70.20;;;;;;5017676;28;8774;-54
2021/11/07 01:30:36;;;;;;;;;61.25;50.25;12.00;71.00;;;;;;5017215;28;8868;-53
2021/11/07 01:33:10;;;;;;;;;60.00;50.50;11.80;71.50;;;;;;5017902;28;8801;-55
2021/11/07 01:35:49;;;;;;;;;51.00;43.75;11.40;73.20;;;;;;5017626;28;8896;-53
2021/11/07 01:38:18;;;;;;;;;55.25;48.00;11.50;73.30;;;;;;5017516;28;8834;-55
2021/11/07 01:40:59;;;;;;;;;55.50;47.25;12.10;70.90;;;;;;5017441;28;8785;-55
2021/11/07 01:43:26;;;;;;;;;56.50;48.00;12.30;69.60;;;;;;5017540;28;8816;-55
2021/11/07 01:46:01;;;;;;;;;56.75;48.75;12.20;69.90;;;;;;5017361;28;8786;-53
2021/11/07 01:48:32;;;;;;;;;56.50;48.00;11.90;70.60;;;;;;5017580;28;9424;-54
2021/11/07 01:50:59;;;;;;;;;55.25;47.25;11.90;70.90;;;;;;5017513;28;9491;-55
2021/11/07 01:53:30;;;;;;;;;56.50;47.50;12.30;69.70;;;;;;5017498;28;9739;-55
2021/11/07 01:55:58;;;;;;;;;57.75;49.75;11.90;70.80;;;;;;5017429;28;8766;-54
2021/11/07 01:58:26;;;;;;;;;70.25;57.25;12.10;70.50;;;;;;5017292;28;8840;-54
2021/11/07 02:00:53;;;;;;;;;61.25;51.25;12.00;71.30;;;;;;5017151;28;8857;-55
2021/11/07 02:03:19;;;;;;;;;61.00;50.50;12.00;70.60;;;;;;5016694;28;8806;-55
2021/11/07 02:05:45;;;;;;;;;53.00;45.25;11.90;71.00;;;;;;5017240;28;9439;-56
2021/11/07 02:08:11;;;;;;;;;50.00;43.00;11.70;71.30;;;;;;5016956;28;8888;-57
2021/11/07 02:10:39;;;;;;;;;53.50;46.25;12.00;71.10;;;;;;5015304;28;8889;-53
2021/11/07 02:13:05;;;;;;;;;55.50;47.00;11.70;71.70;;;;;;5016904;28;8781;-57
2021/11/07 02:15:32;;;;;;;;;52.25;44.75;11.50;71.90;;;;;;5016781;28;8769;-56
2021/11/07 02:17:58;;;;;;;;;57.75;49.25;11.70;72.10;;;;;;5016709;28;8820;-55
2021/11/07 02:20:29;;;;;;;;;58.25;50.25;11.90;70.90;;;;;;5016864;28;8777;-57
2021/11/07 02:22:59;;;;;;;;;58.00;49.25;12.10;70.60;;;;;;5016662;28;8814;-55
2021/11/07 02:25:26;;;;;;;;;57.50;48.75;12.30;69.50;;;;;;5016547;28;8812;-57
2021/11/07 02:27:52;;;;;;;;;54.00;45.50;11.90;71.00;;;;;;5016590;28;8794;-56
2021/11/07 02:30:19;;;;;;;;;57.50;49.00;12.20;70.50;;;;;;5016755;28;9435;-58
2021/11/07 02:32:49;;;;;;;;;55.00;45.50;11.80;71.60;;;;;;5016433;28;8852;-53
2021/11/07 02:35:17;;;;;;;;;59.50;49.75;12.10;70.90;;;;;;5016455;28;8793;-52
2021/11/07 02:37:44;;;;;;;;;56.75;47.00;12.00;70.70;;;;;;5016635;28;8801;-54
2021/11/07 02:40:11;;;;;;;;;54.50;46.50;11.90;71.50;;;;;;5016376;28;8793;-53
2021/11/07 02:42:43;;;;;;;;;57.75;49.25;12.00;70.90;;;;;;5016341;28;8809;-56
2021/11/07 02:45:12;;;;;;;;;59.50;50.75;12.10;71.40;;;;;;5016511;28;9622;-57
2021/11/07 02:47:38;;;;;;;;;59.00;49.75;12.00;70.60;;;;;;5016218;28;8794;-57
2021/11/07 02:50:05;;;;;;;;;60.25;50.75;12.10;70.60;;;;;;5016380;28;8812;-55
2021/11/07 02:52:31;;;;;;;;;76.25;63.75;12.10;70.60;;;;;;5016414;28;8762;-52
2021/11/07 02:54:57;;;;;;;;;77.50;66.50;11.90;71.50;;;;;;5016273;28;8880;-57
2021/11/07 02:57:23;;;;;;;;;65.50;55.00;11.80;72.30;;;;;;5016181;28;8820;-56
2021/11/07 02:59:58;;;;;;;;;64.00;53.00;11.40;74.30;;;;;;5016039;28;9492;-55
2021/11/07 03:02:26;;;;;;;;;60.50;50.50;11.30;74.50;;;;;;5016120;28;8798;-55
2021/11/07 03:04:52;;;;;;;;;59.25;50.25;11.50;73.10;;;;;;5016261;28;9428;-54
2021/11/07 03:07:18;;;;;;;;;60.50;51.50;12.10;71.30;;;;;;5015853;28;8794;-52
2021/11/07 03:09:44;;;;;;;;;60.00;50.25;12.50;69.60;;;;;;5015779;28;9436;-56
2021/11/07 03:12:11;;;;;;;;;56.50;48.25;12.40;69.00;;;;;;5015721;28;8754;-55
2021/11/07 03:14:49;;;;;;;;;56.75;47.75;12.40;69.50;;;;;;5014754;28;8778;-56
2021/11/07 03:17:19;;;;;;;;;59.00;50.00;12.30;69.80;;;;;;5015695;28;8793;-56
2021/11/07 03:19:46;;;;;;;;;59.50;50.75;12.30;69.80;;;;;;5015582;28;8892;-56
2021/11/07 03:22:15;;;;;;;;;60.75;52.25;12.20;69.60;;;;;;5015367;28;8847;-52
2021/11/07 03:24:42;;;;;;;;;60.50;49.75;12.30;69.60;;;;;;5015620;28;8790;-53
2021/11/07 03:27:18;;;;;;;;;57.00;48.75;12.30;69.40;;;;;;5015751;28;9672;-56
2021/11/07 03:29:48;;;;;;;;;58.00;48.25;12.20;69.40;;;;;;5015533;28;8785;-54
2021/11/07 03:32:19;;;;;;;;;57.75;48.00;12.00;70.80;;;;;;5015274;28;8786;-57
2021/11/07 03:34:56;;;;;;;;;53.00;46.00;11.80;71.90;;;;;;5015584;28;8796;-52
2021/11/07 03:37:25;;;;;;;;;57.75;49.00;11.90;71.30;;;;;;5015640;28;8770;-54
2021/11/07 03:39:55;;;;;;;;;56.75;48.50;11.60;72.60;;;;;;5015548;28;8867;-57
2021/11/07 03:42:22;;;;;;;;;58.25;49.75;11.60;72.50;;;;;;5015547;28;8774;-53
2021/11/07 03:44:49;;;;;;;;;59.00;49.50;12.10;70.80;;;;;;5015424;28;8797;-52
2021/11/07 03:47:15;;;;;;;;;53.75;46.25;12.50;69.30;;;;;;5015151;28;8793;-54
2021/11/07 03:49:42;;;;;;;;;62.50;51.00;12.90;67.70;;;;;;5015017;28;8773;-54
2021/11/07 03:52:09;;;;;;;;;58.25;49.25;12.50;68.70;;;;;;5015398;28;8805;-52
2021/11/07 03:54:36;;;;;;;;;65.25;53.75;12.40;69.50;;;;;;5015143;28;8798;-56
2021/11/07 03:57:04;;;;;;;;;59.75;50.00;12.40;69.80;;;;;;5015205;28;8793;-50
2021/11/07 03:59:31;;;;;;;;;61.00;51.50;12.40;69.90;;;;;;5015090;28;8805;-54
2021/11/07 04:01:58;;;;;;;;;55.50;47.00;12.60;69.10;;;;;;5014926;28;8776;-51
2021/11/07 04:04:24;;;;;;;;;61.25;50.75;12.50;69.20;;;;;;5015248;28;8900;-54
2021/11/07 04:06:51;;;;;;;;;57.50;49.50;12.20;70.00;;;;;;5014877;28;8793;-56
2021/11/07 04:09:19;;;;;;;;;61.75;52.00;12.40;70.00;;;;;;5014872;28;8896;-54
2021/11/07 04:11:45;;;;;;;;;61.50;51.00;12.30;70.00;;;;;;5030224;28;9448;-51
2021/11/07 04:14:12;;;;;;;;;53.00;45.00;12.40;69.70;;;;;;5015013;28;8770;-54
2021/11/07 04:16:39;;;;;;;;;60.00;51.00;12.50;69.60;;;;;;5014984;28;8796;-51
2021/11/07 04:19:06;;;;;;;;;64.25;53.50;12.60;68.80;;;;;;5014849;28;8849;-55
2021/11/07 04:21:32;;;;;;;;;58.50;49.50;12.40;69.70;;;;;;5014668;28;8777;-55
2021/11/07 04:23:59;;;;;;;;;63.50;52.25;11.90;71.00;;;;;;5014598;28;8806;-54
2021/11/07 04:26:25;;;;;;;;;65.00;53.25;11.70;72.50;;;;;;5014252;28;8817;-54
2021/11/07 04:28:51;;;;;;;;;57.00;49.00;11.90;72.30;;;;;;5014637;28;8847;-55
2021/11/07 04:31:17;;;;;;;;;56.00;48.00;12.30;70.40;;;;;;5029990;28;8786;-53
2021/11/07 04:33:43;;;;;;;;;57.50;49.50;12.50;68.90;;;;;;5014711;28;8809;-57
2021/11/07 04:36:10;;;;;;;;;56.75;48.75;12.60;68.50;;;;;;5046563;28;8777;-53
2021/11/07 04:38:37;;;;;;;;;60.50;51.50;12.90;67.80;;;;;;5014446;28;8801;-50
2021/11/07 04:41:05;;;;;;;;;59.00;49.75;12.80;67.90;;;;;;5014485;28;8773;-57
2021/11/07 04:43:33;;;;;;;;;53.75;46.00;12.30;69.20;;;;;;5014719;28;8770;-52
2021/11/07 04:45:59;;;;;;;;;52.25;45.75;12.60;68.50;;;;;;5029890;28;8774;-54
2021/11/07 04:48:25;;;;;;;;;53.25;44.50;12.80;67.30;;;;;;5014619;28;8786;-53
2021/11/07 04:50:53;;;;;;;;;45.00;40.00;12.80;67.00;;;;;;5014324;28;8774;-52
2021/11/07 04:53:21;;;;;;;;;49.25;42.00;12.10;69.00;;;;;;5014393;28;8855;-54
2021/11/07 04:55:48;;;;;;;;;52.25;43.75;11.70;71.00;;;;;;5014270;28;8766;-52
2021/11/07 04:58:14;;;;;;;;;51.00;44.00;11.80;71.10;;;;;;5014236;28;8809;-54
2021/11/07 05:00:41;;;;;;;;;55.75;46.25;12.10;70.10;;;;;;5014590;28;8790;-55
2021/11/07 05:03:08;;;;;;;;;51.75;44.75;12.10;70.20;;;;;;5014508;28;8835;-52
2021/11/07 05:05:35;;;;;;;;;53.75;45.00;12.30;69.30;;;;;;5014227;28;8761;-53
2021/11/07 05:08:01;;;;;;;;;51.50;44.00;12.60;68.20;;;;;;5014162;28;8774;-55
2021/11/07 05:10:28;;;;;;;;;48.25;42.00;12.10;69.50;;;;;;5014224;28;8781;-55
2021/11/07 05:12:54;;;;;;;;;45.00;40.75;11.50;71.70;;;;;;5014222;28;8782;-53
2021/11/07 05:15:20;;;;;;;;;47.25;40.50;11.50;71.80;;;;;;5014131;28;8794;-56
2021/11/07 05:17:46;;;;;;;;;40.50;37.50;11.20;73.20;;;;;;5014308;28;8786;-51
2021/11/07 05:20:13;;;;;;;;;47.25;41.00;11.00;73.90;;;;;;5014276;28;8774;-53
2021/11/07 05:22:39;;;;;;;;;48.50;41.50;11.30;72.80;;;;;;5013979;28;8879;-51
2021/11/07 05:25:08;;;;;;;;;44.25;39.50;11.50;72.10;;;;;;5014087;28;8887;-53
2021/11/07 05:27:34;;;;;;;;;51.00;43.25;11.70;71.10;;;;;;5014034;28;8812;-56
2021/11/07 05:30:04;;;;;;;;;50.25;42.75;11.60;71.60;;;;;;5014116;28;8770;-56
2021/11/07 05:32:30;;;;;;;;;46.75;41.00;11.50;72.30;;;;;;5014054;28;8793;-54
2021/11/07 05:34:56;;;;;;;;;36.00;33.50;12.10;69.80;;;;;;5013995;28;8804;-56
2021/11/07 05:37:22;;;;;;;;;51.50;44.50;12.50;68.90;;;;;;5014770;28;8888;-55
2021/11/07 05:39:48;;;;;;;;;73.50;60.50;12.30;69.10;;;;;;5017484;28;8817;-55
2021/11/07 05:42:14;;;;;;;;;56.25;48.00;12.30;69.10;;;;;;5017758;28;9428;-53
2021/11/07 05:44:40;;;;;;;;;62.75;51.50;12.20;68.80;;;;;;5017445;28;8770;-56
2021/11/07 05:47:06;;;;;;;;;58.25;49.25;11.70;71.00;;;;;;5017682;28;8778;-54
2021/11/07 05:49:32;;;;;;;;;58.00;49.00;11.50;72.10;;;;;;5017586;28;8770;-53
2021/11/07 05:51:58;;;;;;;;;53.00;44.75;11.00;73.80;;;;;;5017424;28;9405;-56
2021/11/07 05:54:24;;;;;;;;;47.50;40.25;11.10;73.10;;;;;;5017450;28;8876;-55
2021/11/07 05:56:50;;;;;;;;;49.75;42.75;11.10;73.30;;;;;;5017178;28;8889;-55
2021/11/07 05:59:16;;;;;;;;;56.00;47.00;11.70;71.50;;;;;;5016195;28;8805;-56
2021/11/07 06:01:42;;;;;;;;;52.75;45.00;12.10;69.60;;;;;;5017065;28;8782;-55
2021/11/07 06:04:07;;;;;;;;;57.75;49.75;11.90;70.30;;;;;;5017436;28;8810;-52
2021/11/07 06:06:33;;;;;;;;;56.00;47.00;11.90;70.40;;;;;;5017141;28;8773;-54
2021/11/07 06:09:00;;;;;;;;;54.25;45.25;12.30;68.90;;;;;;5016945;28;8789;-54
2021/11/07 06:11:26;;;;;;;;;42.25;39.00;12.30;68.90;;;;;;5017145;28;8782;-55
2021/11/07 06:13:52;;;;;;;;;43.50;39.25;12.50;67.70;;;;;;5017119;28;8773;-56
2021/11/07 06:16:18;;;;;;;;;42.25;38.25;12.70;67.00;;;;;;5017065;28;8951;-55
2021/11/07 06:18:44;;;;;;;;;40.75;37.00;12.70;66.90;;;;;;5016724;28;8924;-58
2021/11/07 06:21:11;;;;;;;;;52.25;45.00;12.30;68.50;;;;;;5016974;28;8893;-54
2021/11/07 06:23:37;;;;;;;;;53.00;44.75;12.50;67.80;;;;;;5016677;28;8879;-55
2021/11/07 06:26:04;;;;;;;;;55.25;47.50;12.70;67.30;;;;;;5016692;28;8766;-56
2021/11/07 06:28:30;;;;;;;;;51.75;44.00;12.50;67.80;;;;;;5016929;28;8781;-54
2021/11/07 06:31:01;;;;;;;;;50.75;43.00;12.50;67.80;;;;;;5032067;28;8801;-55
2021/11/07 06:33:27;;;;;;;;;51.50;44.00;12.30;68.00;;;;;;5016535;28;8895;-51
2021/11/07 06:35:53;;;;;;;;;55.75;46.75;12.40;68.10;;;;;;5016523;28;8758;-54
2021/11/07 06:38:19;;;;;;;;;54.25;46.50;12.30;68.60;;;;;;5016354;28;8844;-56
2021/11/07 06:40:44;;;;;;;;;40.75;36.25;12.40;68.40;;;;;;5016293;28;8790;-56
2021/11/07 06:43:10;;;;;;;;;45.00;40.25;12.50;68.00;;;;;;5016604;28;8793;-54
2021/11/07 06:45:36;;;;;;;;;44.00;39.50;12.70;67.20;;;;;;5016225;28;8781;-55
2021/11/07 06:48:03;;;;;;;;;50.00;42.00;12.70;67.20;;;;;;5015327;28;8782;-55
2021/11/07 06:50:29;;;;;;;;;52.75;44.75;13.00;66.40;;;;;;5016116;28;8880;-57
2021/11/07 06:52:55;;;;;;;;;50.75;43.50;13.00;66.10;;;;;;5016448;28;8904;-56
2021/11/07 06:55:20;;;;;;;;;49.50;42.50;13.10;66.20;;;;;;5015945;28;8769;-54
2021/11/07 06:57:47;;;;;;;;;50.00;43.00;12.90;66.40;;;;;;5016206;28;8786;-54
2021/11/07 07:00:18;;;;;;;;;58.25;49.25;12.70;67.40;;;;;;5015926;28;8785;-54
2021/11/07 07:02:45;;;;;;;;;50.00;43.50;12.90;66.80;;;;;;5016151;28;9583;-53
2021/11/07 07:05:12;;;;;;;;;55.50;47.50;13.00;66.20;;;;;;5016504;28;8786;-56
2021/11/07 07:07:42;;;;;;;;;36.00;35.00;13.20;66.10;;;;;;5015873;28;8789;-55
2021/11/07 07:10:11;;;;;;;;;48.00;42.50;12.80;66.30;;;;;;5016092;28;8765;-55
2021/11/07 07:12:45;;;;;;;;;47.75;41.50;12.40;68.10;;;;;;5014914;28;9460;-54
2021/11/07 07:15:21;;;;;;;;;44.00;39.25;12.70;67.30;;;;;;5014985;28;8820;-54
2021/11/07 07:30:36;;;;;;;;;59.75;50.75;12.00;70.70;;;;;;5015293;28;8765;-53
2021/11/07 07:35:56;;;;;;;;;48.00;42.50;12.20;69.20;;;;;;4992009;28;8825;-57
2021/11/07 07:38:24;;;;;;;;;48.50;42.75;12.50;67.60;;;;;;5015204;28;9460;-56
2021/11/07 07:40:50;;;;;;;;;50.50;42.50;12.30;68.00;;;;;;5014192;28;8778;-55
2021/11/07 07:43:16;;;;;;;;;56.25;47.75;11.80;70.60;;;;;;5015039;28;8892;-56
2021/11/07 07:45:42;;;;;;;;;55.00;47.75;11.90;70.50;;;;;;5015360;28;8847;-53
2021/11/07 07:48:09;;;;;;;;;55.50;47.50;11.90;70.90;;;;;;5015000;28;8778;-56
2021/11/07 07:50:37;;;;;;;;;56.75;47.75;12.00;70.80;;;;;;5014835;28;8782;-57
2021/11/07 07:53:05;;;;;;;;;64.00;52.00;12.10;70.50;;;;;;5014887;28;8789;-56
2021/11/07 07:55:31;;;;;;;;;57.75;48.25;12.40;69.30;;;;;;5014826;28;8781;-57
2021/11/07 07:57:57;;;;;;;;;56.00;47.50;12.00;70.10;;;;;;5014688;28;8895;-57
2021/11/07 08:00:23;;;;;;;;;64.25;52.75;11.90;70.40;;;;;;5014110;28;8766;-57
2021/11/07 08:02:49;;;;;;;;;51.25;44.25;11.90;71.90;;;;;;5015019;28;8887;-54
2021/11/07 08:05:15;;;;;;;;;51.00;43.50;11.80;71.40;;;;;;5012833;28;8837;-54
2021/11/07 08:07:43;;;;;;;;;52.25;45.00;11.20;73.20;;;;;;5014608;28;8769;-54
2021/11/07 08:10:10;;;;;;;;;54.75;46.75;11.00;74.90;;;;;;5014647;28;8766;-57
2021/11/07 08:12:38;;;;;;;;;60.50;50.25;11.00;74.80;;;;;;5012380;28;8817;-63
2021/11/07 08:15:08;;;;;;;;;60.75;51.00;11.30;74.00;;;;;;5012680;28;8816;-58
2021/11/07 08:17:35;;;;;;;;;53.50;45.50;11.50;72.70;;;;;;5010050;28;8802;-58
2021/11/07 08:20:06;;;;;;;;;54.00;46.25;11.40;71.70;;;;;;5010022;28;8774;-58
2021/11/07 08:22:32;;;;;;;;;57.00;49.00;11.20;73.00;;;;;;5008253;28;8908;-57
2021/11/07 08:24:58;;;;;;;;;60.25;47.50;11.90;71.70;;;;;;5012163;28;9420;-57
2021/11/07 08:27:25;;;;;;;;;51.50;43.75;12.00;70.10;;;;;;5011504;28;8798;-57
2021/11/07 08:29:55;;;;;;;;;61.00;51.50;11.70;70.50;;;;;;5008864;28;8810;-59
2021/11/07 08:32:21;;;;;;;;;56.75;48.75;11.40;71.50;;;;;;5008795;28;8766;-58
2021/11/07 08:34:47;;;;;;;;;63.50;50.25;11.10;72.80;;;;;;5012032;28;8818;-58
2021/11/07 08:37:16;;;;;;;;;69.25;56.00;11.20;73.00;;;;;;5011469;28;8798;-58
2021/11/07 08:39:49;;;;;;;;;65.75;54.25;11.80;71.30;;;;;;5039500;28;8867;-59
2021/11/07 08:42:33;;;;;;;;;62.75;52.00;12.10;70.30;;;;;;5005994;28;8798;-59
2021/11/07 09:04:21;;;;;;;;;71.00;58.00;12.00;70.00;;;;;;5012555;28;8810;-60
2021/11/07 09:09:25;;;;;;;;;64.00;51.50;12.20;68.70;;;;;;5010016;28;8793;-60
2021/11/07 09:11:53;;;;;;;;;59.00;49.50;11.90;70.00;;;;;;5013233;28;8774;-59
2021/11/07 09:14:23;;;;;;;;;58.25;49.00;11.30;72.20;;;;;;5016837;28;8861;-65
2021/11/07 09:16:50;;;;;;;;;55.50;46.25;11.40;71.90;;;;;;5049825;28;8825;-64
2021/11/07 09:19:21;;;;;;;;;59.50;49.50;11.20;72.70;;;;;;5017234;28;8790;-64
2021/11/07 09:21:52;;;;;;;;;62.25;51.50;11.10;73.70;;;;;;5015809;28;8786;-68
2021/11/07 09:24:30;;;;;;;;;56.25;48.00;10.80;74.50;;;;;;5016061;28;8817;-68
2021/11/07 09:26:56;;;;;;;;;63.25;52.00;11.00;74.30;;;;;;5016991;28;8809;-62
2021/11/07 09:29:43;;;;;;;;;58.75;49.75;11.20;73.40;;;;;;5017153;28;8786;-65
2021/11/07 09:32:27;;;;;;;;;63.75;52.50;10.90;73.80;;;;;;5006060;28;8896;-60
2021/11/07 09:40:11;;;;;;;;;73.00;60.00;12.20;70.00;;;;;;5007970;28;9490;-62
2021/11/07 09:45:29;;;;;;;;;70.00;57.25;12.60;68.60;;;;;;5013306;28;8770;-63
2021/11/07 09:48:06;;;;;;;;;74.50;61.00;12.70;67.90;;;;;;5007490;28;9575;-67
2021/11/07 09:50:32;;;;;;;;;69.00;55.00;12.50;68.70;;;;;;5014350;28;8770;-64
2021/11/07 09:52:58;;;;;;;;;61.50;51.25;12.50;68.60;;;;;;5014697;28;9444;-65
2021/11/07 09:55:26;;;;;;;;;64.50;54.00;11.60;71.10;;;;;;5015886;28;8786;-62
2021/11/07 09:57:55;;;;;;;;;66.50;53.50;11.40;72.10;;;;;;5016340;28;8812;-61
2021/11/07 10:00:43;;;;;;;;;55.00;47.00;11.20;73.20;;;;;;5015951;28;8836;-61
2021/11/07 10:03:15;;;;;;;;;58.50;49.75;11.20;72.90;;;;;;5009058;28;8813;-62
2021/11/07 10:05:45;;;;;;;;;57.00;49.00;11.30;73.10;;;;;;5007671;28;8777;-59
2021/11/07 10:08:12;;;;;;;;;63.00;52.50;11.40;72.60;;;;;;5014008;28;8820;-59
2021/11/07 10:10:47;;;;;;;;;58.50;49.75;11.60;72.60;;;;;;5014209;28;8813;-60
2021/11/07 10:13:24;;;;;;;;;54.00;46.25;11.60;71.60;;;;;;5015860;28;8796;-60
2021/11/07 10:16:07;;;;;;;;;91.00;87.75;11.70;71.30;;;;;;5013120;28;8804;-60
2021/11/07 10:19:02;;;;;;;;;55.00;46.25;11.80;71.20;;;;;;5012492;28;8813;-60
2021/11/07 10:21:35;;;;;;;;;57.00;48.25;11.40;71.10;;;;;;5014408;28;8818;-60
2021/11/07 10:24:13;;;;;;;;;57.00;49.00;11.20;71.70;;;;;;5015330;28;9467;-60
2021/11/07 10:26:42;;;;;;;;;54.75;46.25;11.10;73.00;;;;;;5016484;28;8789;-60
2021/11/07 10:29:20;;;;;;;;;60.00;50.75;11.70;71.30;;;;;;5014247;28;8819;-60
2021/11/07 10:32:01;;;;;;;;;58.50;50.00;12.30;69.50;;;;;;5008331;28;9580;-61
2021/11/07 10:34:39;;;;;;;;;65.25;54.75;12.30;68.60;;;;;;5011739;28;8806;-60
2021/11/07 10:45:23;;;;;;;;;57.00;47.00;12.30;67.80;;;;;;5014056;28;8773;-61
2021/11/07 10:53:37;;;;;;;;;59.00;49.00;12.00;68.80;;;;;;5014208;28;8872;-60
2021/11/07 10:56:08;;;;;;;;;67.50;56.00;12.40;67.40;;;;;;5015610;28;8983;-61
2021/11/07 10:58:43;;;;;;;;;60.25;50.25;12.50;66.70;;;;;;5014950;28;8813;-60
2021/11/07 11:01:23;;;;;;;;;66.50;54.75;12.00;68.90;;;;;;5013456;28;8769;-62
2021/11/07 11:03:58;;;;;;;;;71.75;57.50;12.30;67.90;;;;;;5013932;28;8814;-62
2021/11/07 11:06:24;;;;;;;;;54.50;45.75;12.70;66.80;;;;;;5015207;28;8774;-59
2021/11/07 11:11:29;;;;;;;;;64.00;53.00;12.80;65.70;;;;;;5015441;28;9460;-59
2021/11/07 11:14:01;;;;;;;;;66.00;55.75;12.90;65.40;;;;;;5015564;28;8944;-59
2021/11/07 11:20:01;;;;;;;;;73.00;59.25;12.00;68.70;;;;;;5014735;28;8850;-58
2021/11/07 11:28:17;;;;;;;;;75.25;60.25;12.30;68.20;;;;;;5013788;28;8762;-58
2021/11/07 11:31:13;;;;;;;;;75.00;61.00;12.60;67.10;;;;;;5015123;28;8963;-58
2021/11/07 11:33:47;;;;;;;;;79.50;64.75;12.50;67.50;;;;;;5015418;28;8813;-59
2021/11/07 11:36:26;;;;;;;;;77.50;65.50;12.80;66.90;;;;;;5013161;28;9463;-59
2021/11/07 11:38:58;;;;;;;;;72.75;57.50;12.80;66.90;;;;;;5013255;28;8944;-59
2021/11/07 11:41:50;;;;;;;;;76.25;60.25;12.90;66.40;;;;;;4994549;28;8818;-59
2021/11/07 11:44:16;;;;;;;;;69.00;55.25;13.00;65.90;;;;;;4995112;28;8951;-59
2021/11/07 11:47:10;;;;;;;;;74.25;59.00;12.90;66.90;;;;;;4995459;28;9430;-59
2021/11/07 12:05:51;;;;;;;;;75.00;60.75;12.70;67.00;;;;;;4995541;28;8749;-58
2021/11/07 12:08:26;;;;;;;;;72.25;59.00;12.80;66.50;;;;;;4995383;28;8846;-58
2021/11/07 12:11:17;;;;;;;;;74.50;61.25;13.00;66.10;;;;;;4995293;28;8773;-60
2021/11/07 12:13:58;;;;;;;;;74.50;60.25;13.00;65.70;;;;;;4995263;28;8895;-60
2021/11/07 12:16:48;;;;;;;;;74.50;62.75;12.70;66.00;;;;;;4995134;28;8780;-60
2021/11/07 12:19:16;;;;;;;;;72.25;59.00;12.40;67.10;;;;;;4995027;28;8906;-59
2021/11/07 12:21:51;;;;;;;;;73.75;60.75;12.50;67.30;;;;;;4994985;28;8765;-59
2021/11/07 12:24:22;;;;;;;;;85.00;76.50;12.00;68.40;;;;;;4994949;28;8854;-60
2021/11/07 12:26:49;;;;;;;;;80.00;65.50;11.70;70.10;;;;;;4994981;28;8792;-60
2021/11/07 12:29:40;;;;;;;;;75.25;61.25;11.90;69.40;;;;;;4995222;28;9226;-60
2021/11/07 12:32:09;;;;;;;;;78.00;65.75;12.10;68.70;;;;;;4994750;28;8799;-60
2021/11/07 12:35:14;;;;;;;;;81.25;69.50;12.50;67.30;;;;;;4994884;28;8788;-60
2021/11/07 12:40:46;;;;;;;;;82.25;70.50;11.60;70.30;;;;;;4994929;28;8789;-60
2021/11/07 12:43:17;;;;;;;;;82.75;74.50;11.10;72.50;;;;;;4994826;28;8785;-60
2021/11/07 12:45:47;;;;;;;;;79.75;69.50;11.20;72.70;;;;;;4994708;28;8799;-60
2021/11/07 12:48:34;;;;;;;;;73.50;61.00;11.70;70.50;;;;;;4998233;28;8776;-60
2021/11/07 12:51:01;;;;;;;;;76.25;63.00;11.80;69.90;;;;;;4999055;28;9524;-58
2021/11/07 12:53:49;;;;;;;;;81.00;66.00;11.50;71.00;;;;;;4998814;28;8773;-60
2021/11/07 12:56:35;;;;;;;;;74.75;61.00;11.20;71.90;;;;;;5017298;28;8825;-60
2021/11/07 12:59:04;;;;;;;;;77.75;64.25;11.70;70.10;;;;;;5016260;28;8944;-64
2021/11/07 13:01:31;;;;;;;;;85.25;73.75;11.80;70.00;;;;;;5016615;28;8789;-60
2021/11/07 13:04:02;;;;;;;;;92.00;89.50;12.10;68.90;;;;;;5014846;28;8794;-60
2021/11/07 13:06:34;;;;;;;;;94.25;93.25;11.60;70.60;;;;;;5015860;28;8901;-65
2021/11/07 13:09:03;;;;;;;;;88.50;85.50;11.80;70.20;;;;;;5015651;28;8824;-62
2021/11/07 13:11:40;;;;;;;;;80.25;69.00;11.60;71.00;;;;;;5017006;28;8805;-60
2021/11/07 13:14:55;;;;;;;;;80.25;68.00;11.70;70.30;;;;;;5015633;28;8810;-62
2021/11/07 13:17:34;;;;;;;;;75.25;61.00;12.00;69.40;;;;;;5006300;28;8798;-64
2021/11/07 13:23:14;;;;;;;;;70.25;57.25;12.00;69.60;;;;;;5014543;28;8845;-63
2021/11/07 13:28:43;;;;;;;;;90.00;88.00;11.70;69.90;;;;;;4956764;28;8915;-63
2021/11/07 13:33:44;;;;;;;;;82.25;72.50;10.40;76.20;;;;;;4953414;28;8808;-63
2021/11/07 13:36:13;;;;;;;;;86.50;76.50;10.30;76.80;;;;;;4957076;28;8772;-68
2021/11/07 13:39:03;;;;;;;;;74.75;58.75;10.70;76.00;;;;;;4953019;28;8813;-68
2021/11/07 13:41:29;;;;;;;;;82.25;71.00;10.50;76.20;;;;;;4955628;28;8768;-61
2021/11/07 13:44:01;;;;;;;;;83.75;71.50;10.80;75.70;;;;;;4956562;28;8800;-65
2021/11/07 13:46:26;;;;;;;;;78.25;67.00;10.90;74.60;;;;;;4955852;28;8765;-70
2021/11/07 13:49:03;;;;;;;;;79.75;70.50;11.20;73.40;;;;;;4955824;28;8779;-63
2021/11/07 13:51:31;;;;;;;;;76.50;62.50;11.20;73.80;;;;;;4956558;28;9672;-73
2021/11/07 13:53:59;;;;;;;;;83.00;70.50;10.80;74.90;;;;;;4956760;28;8785;-63
2021/11/07 13:56:26;;;;;;;;;74.75;61.50;10.60;75.80;;;;;;4956690;28;8915;-58
2021/11/07 13:58:52;;;;;;;;;85.00;76.50;10.50;76.50;;;;;;4955528;28;8963;-63
2021/11/07 14:01:18;;;;;;;;;83.75;74.25;10.60;76.00;;;;;;4956086;28;8781;-65
2021/11/07 14:03:45;;;;;;;;;91.00;87.75;10.70;76.50;;;;;;4956061;28;8816;-60
2021/11/07 14:06:15;;;;;;;;;91.75;85.50;10.70;76.00;;;;;;5006013;28;8804;-62
2021/11/07 14:08:44;;;;;;;;;84.25;71.75;10.70;76.60;;;;;;5017195;28;8808;-67
2021/11/07 14:11:12;;;;;;;;;91.50;86.50;10.80;76.00;;;;;;5015157;28;8805;-62
2021/11/07 14:13:45;;;;;;;;;94.00;92.00;10.60;76.80;;;;;;5016968;28;8774;-62
2021/11/07 14:16:13;;;;;;;;;91.00;87.75;10.60;77.00;;;;;;5016546;28;8806;-62
2021/11/07 14:18:46;;;;;;;;;84.75;79.00;10.80;76.60;;;;;;5014776;28;8952;-61
2021/11/07 14:21:15;;;;;;;;;77.25;67.25;10.70;76.80;;;;;;5016190;28;8867;-60
2021/11/07 14:23:55;;;;;;;;;81.50;72.50;10.70;76.50;;;;;;5015769;28;8828;-59
2021/11/07 14:26:42;;;;;;;;;89.25;84.50;10.70;77.00;;;;;;5015831;28;8797;-60
2021/11/07 14:29:22;;;;;;;;;82.25;72.25;10.70;77.50;;;;;;5015352;28;8784;-61
2021/11/07 14:31:57;;;;;;;;;80.75;72.25;10.90;76.00;;;;;;5007153;28;8811;-60
2021/11/07 14:37:16;;;;;;;;;81.25;70.00;10.80;76.80;;;;;;5011599;28;8758;-62
2021/11/07 14:40:10;;;;;;;;;81.00;71.00;10.80;77.40;;;;;;5011418;28;8811;-60
2021/11/07 14:43:21;;;;;;;;;80.25;68.75;10.70;77.10;;;;;;5012222;28;8797;-60
2021/11/07 14:54:13;;;;;;;;;88.25;82.50;11.50;73.60;;;;;;5005240;28;8782;-61
2021/11/07 14:57:08;;;;;;;;;87.75;82.50;11.20;74.70;;;;;;5008933;28;8870;-60
2021/11/07 14:59:56;;;;;;;;;87.50;80.00;11.80;73.30;;;;;;5004369;28;8904;-61
2021/11/07 15:05:27;;;;;;;;;77.75;65.00;11.70;72.50;;;;;;5007814;28;8770;-62
2021/11/07 15:11:10;;;;;;;;;78.00;67.00;11.70;73.10;;;;;;5015712;28;8778;-63
2021/11/07 15:16:39;;;;;;;;;56.00;48.00;11.60;72.70;;;;;;5011514;28;8754;-59
2021/11/07 15:19:15;;;;;;;;;66.00;55.00;11.20;75.60;;;;;;5015304;28;8805;-60